CheckWX is a tool to help pilots better visualize weather data.  It is not intended as a substitute for an official pre-flight weather briefing.

13:06:52 UTC

SBIH TAF
Itaituba Airport
Itaituba, Brazil
TAF SBIH 190900Z 1912/1924 35003KT 7000 NSCTN30/1912Z TX37/1918Z BECMG 1912/1914 10010KT 9999 FEW020 BECMG 1915/1917 07010KT BECMG 1919/1921 31010KT SCT020 FEW025TCU BECMG 1922/1924 24005KT RMK PGS

Sep-19@
12:00 UTC

Sep-19 @ 12:00 UTC

Sep-20@
00:00 UTC

Sep-20 @ 00:00 UTC

TAF SBIH 190900Z 1912/1924 35003KT 7000 NSCTN30/1912Z TX37/1918Z
Wind
  • 350° at 3 KTS

Sep-19@
12:00 UTC

Sep-19 @ 12:00 UTC

Sep-19@
15:00 UTC

Sep-19 @ 15:00 UTC

BECMG 1912/1914 10010KT 9999 FEW020

Becoming

Becoming Conditions expected by Thu, Sep 19, 2019 @ 14:00 UTC

Wind
  • 100° at 10 KTS
Cloud Levels
  • Few at 2,000' AGL

Sep-19@
15:00 UTC

Sep-19 @ 15:00 UTC

Sep-19@
19:00 UTC

Sep-19 @ 19:00 UTC

BECMG 1915/1917 07010KT

Becoming

Becoming Conditions expected by Thu, Sep 19, 2019 @ 17:00 UTC

Wind
  • 070° at 10 KTS
Cloud Levels
  • Few at 2,000' AGL

Sep-19@
19:00 UTC

Sep-19 @ 19:00 UTC

Sep-19@
22:00 UTC

Sep-19 @ 22:00 UTC

BECMG 1919/1921 31010KT SCT020 FEW025TCU

Becoming

Becoming Conditions expected by Thu, Sep 19, 2019 @ 21:00 UTC

Wind
  • 310° at 10 KTS
Cloud Levels
  • Scattered at 2,000' AGL
  • Few at 2,500' AGL

Sep-19@
22:00 UTC

Sep-19 @ 22:00 UTC

Sep-20@
00:00 UTC

Sep-20 @ 00:00 UTC

BECMG 1922/1924 24005KT RMK PGS

Becoming

Becoming Conditions expected by Fri, Sep 20, 2019 @ 00:00 UTC

Wind
  • 240° at 5 KTS
Cloud Levels
  • Scattered at 2,000' AGL
  • Few at 2,500' AGL